createdAt,value
2018-10-06T00:00:18.575Z,8.78
2018-10-06T00:01:18.724Z,8.75
2018-10-06T00:02:18.872Z,8.78
2018-10-06T00:03:19.021Z,8.72
2018-10-06T00:04:19.169Z,8.79
2018-10-06T00:05:19.316Z,8.87
2018-10-06T00:06:19.466Z,8.76
2018-10-06T00:07:19.613Z,8.79
2018-10-06T00:08:19.763Z,8.78
2018-10-06T00:09:19.911Z,8.79
2018-10-06T00:10:20.059Z,8.86
2018-10-06T00:11:20.205Z,8.76
2018-10-06T00:12:20.356Z,8.73
2018-10-06T00:13:20.502Z,8.73
2018-10-06T00:14:20.651Z,8.69
2018-10-06T00:15:20.802Z,8.73
2018-10-06T00:16:20.948Z,8.69
2018-10-06T00:17:21.096Z,8.65
2018-10-06T00:18:21.240Z,8.57
2018-10-06T00:19:21.389Z,8.57
2018-10-06T00:20:21.536Z,8.60
2018-10-06T00:21:21.685Z,8.57
2018-10-06T00:22:21.833Z,8.62
2018-10-06T00:23:21.981Z,8.72
2018-10-06T00:24:22.131Z,8.68
2018-10-06T00:25:22.277Z,8.72
2018-10-06T00:26:22.427Z,8.62
2018-10-06T00:27:22.574Z,8.69
2018-10-06T00:28:22.724Z,8.57
2018-10-06T00:29:22.879Z,8.65
2018-10-06T00:30:23.029Z,8.68
2018-10-06T00:31:23.176Z,8.57
2018-10-06T00:32:23.325Z,8.51
2018-10-06T00:33:23.473Z,8.47
2018-10-06T00:34:23.621Z,8.36
2018-10-06T00:35:23.770Z,8.29
2018-10-06T00:36:23.918Z,8.26
2018-10-06T00:37:24.067Z,8.14
2018-10-06T00:38:24.215Z,8.29
2018-10-06T00:39:24.363Z,8.21
2018-10-06T00:40:24.514Z,8.22
2018-10-06T00:41:24.660Z,8.20
2018-10-06T00:42:24.807Z,8.25
2018-10-06T00:43:24.959Z,8.14
2018-10-06T00:44:25.106Z,8.17
2018-10-06T00:45:25.253Z,8.14
2018-10-06T00:46:25.403Z,8.18
2018-10-06T00:47:25.552Z,8.26
2018-10-06T00:48:25.699Z,8.21
2018-10-06T00:49:25.847Z,8.29
2018-10-06T00:50:25.997Z,8.20
2018-10-06T00:51:26.147Z,8.26
2018-10-06T00:52:26.292Z,8.11
2018-10-06T00:53:26.440Z,8.20
2018-10-06T00:54:26.588Z,8.21
2018-10-06T00:55:26.735Z,8.21
2018-10-06T00:56:26.884Z,8.08
2018-10-06T00:57:27.031Z,8.11
2018-10-06T00:58:27.181Z,8.21
2018-10-06T00:59:27.330Z,8.07
2018-10-06T01:00:27.477Z,8.04
2018-10-06T01:01:27.626Z,8.04
2018-10-06T01:02:27.774Z,8.11
2018-10-06T01:03:27.921Z,8.10
2018-10-06T01:04:28.070Z,8.04
2018-10-06T01:05:28.217Z,8.04
2018-10-06T01:06:28.365Z,7.97
2018-10-06T01:07:28.512Z,7.99
2018-10-06T01:08:28.663Z,8.08
2018-10-06T01:09:28.815Z,7.93
2018-10-06T01:10:28.961Z,7.94
2018-10-06T01:11:29.108Z,8.03
2018-10-06T01:12:29.256Z,7.87
2018-10-06T01:13:29.402Z,7.90
2018-10-06T01:14:29.552Z,8.03
2018-10-06T01:15:29.700Z,7.90
2018-10-06T01:16:29.850Z,7.89
2018-10-06T01:17:30.001Z,7.81
2018-10-06T01:18:30.147Z,7.85
2018-10-06T01:19:30.295Z,7.81
2018-10-06T01:20:30.442Z,7.85
2018-10-06T01:21:30.591Z,7.85
2018-10-06T01:22:30.740Z,7.96
2018-10-06T01:23:30.889Z,7.89
2018-10-06T01:24:31.037Z,7.84
2018-10-06T01:25:31.185Z,7.96
2018-10-06T01:26:31.334Z,7.97
2018-10-06T01:27:31.482Z,7.93
2018-10-06T01:28:31.631Z,7.92
2018-10-06T01:29:31.779Z,7.90
2018-10-06T01:30:31.930Z,7.93
2018-10-06T01:31:32.080Z,7.89
2018-10-06T01:32:32.224Z,7.87
2018-10-06T01:33:32.372Z,7.93
2018-10-06T01:34:32.520Z,7.77
2018-10-06T01:35:32.672Z,7.78
2018-10-06T01:36:32.818Z,7.69
2018-10-06T01:37:32.965Z,7.74
2018-10-06T01:38:33.114Z,7.81
2018-10-06T01:39:33.265Z,7.79
2018-10-06T01:40:33.411Z,7.82
2018-10-06T01:41:33.555Z,7.77
2018-10-06T01:42:33.704Z,7.85
2018-10-06T01:43:33.852Z,7.74
2018-10-06T01:44:34.001Z,7.66
2018-10-06T01:45:34.148Z,7.63
2018-10-06T01:46:34.301Z,7.62
2018-10-06T01:47:34.447Z,7.72
2018-10-06T01:48:34.596Z,7.67
2018-10-06T01:49:34.741Z,7.71
2018-10-06T01:50:34.892Z,7.59
2018-10-06T01:51:35.043Z,7.56
2018-10-06T01:52:35.186Z,7.56
2018-10-06T01:53:35.332Z,7.53
2018-10-06T01:54:35.481Z,7.53
2018-10-06T01:55:35.630Z,7.58
2018-10-06T01:56:35.776Z,7.42
2018-10-06T01:57:35.924Z,7.44
2018-10-06T01:58:36.076Z,7.41
2018-10-06T01:59:36.220Z,7.40
2018-10-06T02:00:36.366Z,7.44
2018-10-06T02:01:36.512Z,7.29
2018-10-06T02:02:36.659Z,7.29
2018-10-06T02:03:36.806Z,7.29
2018-10-06T02:04:36.954Z,7.29
2018-10-06T02:05:37.103Z,7.22
2018-10-06T02:06:37.256Z,7.29
2018-10-06T02:07:37.399Z,7.23
2018-10-06T02:08:37.544Z,7.17
2018-10-06T02:09:37.695Z,7.07
2018-10-06T02:10:37.836Z,7.19
2018-10-06T02:11:37.985Z,7.12
2018-10-06T02:12:38.132Z,7.16
2018-10-06T02:13:38.280Z,7.20
2018-10-06T02:14:38.427Z,7.17
2018-10-06T02:15:38.573Z,7.01
2018-10-06T02:16:38.720Z,7.04
2018-10-06T02:17:38.872Z,6.99
2018-10-06T02:18:39.019Z,7.02
2018-10-06T02:19:39.164Z,7.07
2018-10-06T02:20:39.311Z,6.91
2018-10-06T02:21:39.457Z,7.05
2018-10-06T02:22:39.605Z,6.99
2018-10-06T02:23:39.752Z,7.05
2018-10-06T02:24:39.902Z,7.05
2018-10-06T02:25:40.049Z,7.02
2018-10-06T02:26:40.193Z,7.02
2018-10-06T02:27:40.343Z,7.05
2018-10-06T02:28:40.490Z,7.09
2018-10-06T02:29:40.634Z,6.98
2018-10-06T02:30:40.807Z,6.94
2018-10-06T02:31:40.954Z,7.07
2018-10-06T02:32:41.100Z,7.16
2018-10-06T02:33:41.248Z,7.09
2018-10-06T02:34:41.396Z,7.20
2018-10-06T02:35:41.546Z,7.08
2018-10-06T02:36:41.704Z,7.17
2018-10-06T02:37:41.838Z,7.12
2018-10-06T02:38:41.986Z,7.26
2018-10-06T02:39:42.134Z,7.27
2018-10-06T02:40:42.283Z,7.17
2018-10-06T02:41:42.428Z,7.20
2018-10-06T02:42:42.576Z,7.19
2018-10-06T02:43:42.725Z,7.17
2018-10-06T02:44:42.877Z,7.04
2018-10-06T02:45:43.023Z,7.16
2018-10-06T02:46:43.168Z,7.13
2018-10-06T02:47:43.316Z,7.02
2018-10-06T02:48:43.464Z,7.12
2018-10-06T02:49:43.612Z,7.05
2018-10-06T02:50:43.759Z,7.17
2018-10-06T02:51:43.905Z,7.19
2018-10-06T02:52:44.053Z,7.12
2018-10-06T02:53:44.202Z,7.23
2018-10-06T02:54:44.350Z,7.24
2018-10-06T02:55:44.503Z,7.22
2018-10-06T02:56:44.651Z,7.24
2018-10-06T02:57:44.796Z,7.19
2018-10-06T02:58:44.944Z,7.15
2018-10-06T02:59:45.089Z,7.19
2018-10-06T03:00:45.236Z,7.24
2018-10-06T03:01:45.386Z,7.16
2018-10-06T03:02:45.535Z,7.20
2018-10-06T03:03:45.681Z,7.17
2018-10-06T03:04:45.828Z,7.17
2018-10-06T03:05:45.978Z,7.12
2018-10-06T03:06:46.129Z,7.05
2018-10-06T03:07:46.272Z,7.08
2018-10-06T03:08:46.427Z,7.15
2018-10-06T03:09:46.564Z,7.17
2018-10-06T03:10:46.714Z,7.07
2018-10-06T03:11:46.863Z,7.20
2018-10-06T03:12:47.010Z,7.19
2018-10-06T03:13:47.156Z,7.16
2018-10-06T03:14:47.305Z,7.02
2018-10-06T03:15:47.460Z,7.15
2018-10-06T03:16:47.601Z,7.15
2018-10-06T03:17:47.746Z,7.02
2018-10-06T03:18:47.893Z,7.05
2018-10-06T03:19:48.041Z,6.83
2018-10-06T03:20:48.190Z,6.84
2018-10-06T03:21:48.337Z,6.90
2018-10-06T03:22:48.485Z,6.87
2018-10-06T03:23:48.635Z,6.86
2018-10-06T03:24:48.781Z,6.81
2018-10-06T03:25:48.926Z,6.89
2018-10-06T03:26:49.074Z,6.94
2018-10-06T03:27:49.222Z,6.90
2018-10-06T03:28:49.385Z,6.86
2018-10-06T03:29:49.516Z,6.90
2018-10-06T03:30:49.669Z,6.84
2018-10-06T03:31:49.815Z,6.84
2018-10-06T03:32:49.961Z,6.86
2018-10-06T03:33:50.108Z,6.76
2018-10-06T03:34:50.258Z,6.84
2018-10-06T03:35:50.404Z,6.87
2018-10-06T03:36:50.548Z,6.87
2018-10-06T03:37:50.699Z,6.83
2018-10-06T03:38:50.847Z,6.76
2018-10-06T03:39:50.991Z,6.76
2018-10-06T03:40:51.141Z,6.68
2018-10-06T03:41:51.351Z,6.65
2018-10-06T03:42:51.438Z,6.69
2018-10-06T03:43:51.603Z,6.80
2018-10-06T03:44:51.735Z,6.77
2018-10-06T03:45:51.887Z,6.76
2018-10-06T03:46:52.036Z,6.77
2018-10-06T03:47:52.184Z,6.84
2018-10-06T03:48:52.329Z,6.76
2018-10-06T03:49:52.476Z,6.69
2018-10-06T03:50:52.625Z,6.86
2018-10-06T03:51:52.775Z,6.83
2018-10-06T03:52:52.923Z,6.91
2018-10-06T03:53:53.129Z,6.89
2018-10-06T03:54:53.217Z,6.77
2018-10-06T03:55:53.364Z,6.83
2018-10-06T03:56:53.519Z,6.90
2018-10-06T03:57:53.662Z,6.84
2018-10-06T03:58:53.805Z,6.81
2018-10-06T03:59:53.952Z,6.81
2018-10-06T04:00:54.099Z,6.68
2018-10-06T04:01:54.247Z,6.80
2018-10-06T04:02:54.393Z,6.71
2018-10-06T04:03:54.540Z,6.63
2018-10-06T04:04:54.689Z,6.66
2018-10-06T04:05:54.837Z,6.63
2018-10-06T04:06:54.981Z,6.68
2018-10-06T04:07:55.130Z,6.58
2018-10-06T04:08:55.277Z,6.51
2018-10-06T04:09:55.427Z,6.51
2018-10-06T04:10:55.573Z,6.47
2018-10-06T04:11:55.720Z,6.53
2018-10-06T04:12:55.867Z,6.51
2018-10-06T04:13:56.014Z,6.41
2018-10-06T04:14:56.162Z,6.33
2018-10-06T04:15:56.312Z,6.47
2018-10-06T04:16:56.460Z,6.41
2018-10-06T04:17:56.611Z,6.33
2018-10-06T04:18:56.762Z,6.35
2018-10-06T04:19:56.905Z,6.36
2018-10-06T04:20:57.056Z,6.47
2018-10-06T04:21:57.202Z,6.30
2018-10-06T04:22:57.347Z,6.30
2018-10-06T04:23:57.498Z,6.30
2018-10-06T04:24:57.643Z,6.35
2018-10-06T04:25:57.790Z,6.26
2018-10-06T04:26:57.938Z,6.36
2018-10-06T04:27:58.086Z,6.35
2018-10-06T04:28:58.235Z,6.38
2018-10-06T04:29:58.381Z,6.40
2018-10-06T04:30:58.530Z,6.33
2018-10-06T04:31:58.676Z,6.50
2018-10-06T04:32:58.822Z,6.47
2018-10-06T04:33:58.968Z,6.38
2018-10-06T04:34:59.117Z,6.40
2018-10-06T04:35:59.274Z,6.41
2018-10-06T04:36:59.416Z,6.44
2018-10-06T04:37:59.565Z,6.33
2018-10-06T04:38:59.709Z,6.30
2018-10-06T04:39:59.857Z,6.29
2018-10-06T04:41:00.005Z,6.26
2018-10-06T04:42:00.152Z,6.35
2018-10-06T04:43:00.299Z,6.38
2018-10-06T04:44:00.446Z,6.35
2018-10-06T04:45:00.595Z,6.33
2018-10-06T04:46:00.740Z,6.43
2018-10-06T04:47:00.890Z,6.50
2018-10-06T04:48:01.037Z,6.41
2018-10-06T04:49:01.186Z,6.62
2018-10-06T04:50:01.332Z,6.44
2018-10-06T04:51:01.476Z,6.56
2018-10-06T04:52:01.624Z,6.41
2018-10-06T04:53:01.808Z,6.56
2018-10-06T04:54:01.919Z,6.43
2018-10-06T04:55:02.077Z,6.47
2018-10-06T04:56:02.218Z,6.32
2018-10-06T04:57:02.362Z,6.38
2018-10-06T04:58:02.510Z,6.33
2018-10-06T04:59:02.660Z,6.36
2018-10-06T05:00:02.812Z,6.29
2018-10-06T05:01:02.953Z,6.21
2018-10-06T05:02:03.101Z,6.22
2018-10-06T05:03:03.250Z,6.29
2018-10-06T05:04:03.397Z,6.26
2018-10-06T05:05:03.546Z,6.16
2018-10-06T05:06:03.689Z,6.19
2018-10-06T05:07:03.838Z,6.22
2018-10-06T05:08:03.987Z,6.30
2018-10-06T05:09:04.131Z,6.26
2018-10-06T05:10:04.280Z,6.29
2018-10-06T05:11:04.429Z,6.29
2018-10-06T05:12:04.574Z,6.11
2018-10-06T05:13:04.721Z,6.22
2018-10-06T05:14:04.868Z,6.28
2018-10-06T05:15:05.014Z,6.32
2018-10-06T05:16:05.162Z,6.36
2018-10-06T05:17:05.307Z,6.36
2018-10-06T05:18:05.455Z,6.47
2018-10-06T05:19:05.606Z,6.29
2018-10-06T05:20:05.753Z,6.30
2018-10-06T05:21:05.900Z,6.38
2018-10-06T05:22:06.046Z,6.41
2018-10-06T05:23:06.193Z,6.47
2018-10-06T05:24:06.343Z,6.26
2018-10-06T05:25:06.489Z,6.16
2018-10-06T05:26:06.637Z,6.18
2018-10-06T05:27:06.784Z,6.22
2018-10-06T05:28:06.938Z,6.25
2018-10-06T05:29:07.083Z,6.22
2018-10-06T05:30:07.225Z,6.28
2018-10-06T05:31:07.374Z,6.26
2018-10-06T05:32:07.522Z,6.30
2018-10-06T05:33:07.671Z,6.26
2018-10-06T05:34:07.848Z,6.29
2018-10-06T05:35:07.966Z,6.18
2018-10-06T05:36:08.113Z,6.25
2018-10-06T05:37:08.262Z,6.32
2018-10-06T05:38:08.408Z,6.29
2018-10-06T05:39:08.554Z,6.29
2018-10-06T05:40:08.699Z,6.28
2018-10-06T05:41:08.847Z,6.18
2018-10-06T05:42:08.998Z,6.26
2018-10-06T05:43:09.145Z,6.33
2018-10-06T05:44:09.295Z,6.26
2018-10-06T05:45:09.442Z,6.35
2018-10-06T05:46:09.591Z,6.35
2018-10-06T05:47:09.738Z,6.36
2018-10-06T05:48:09.880Z,6.38
2018-10-06T05:49:10.028Z,6.36
2018-10-06T05:50:10.181Z,6.33
2018-10-06T05:51:10.323Z,6.33
2018-10-06T05:52:10.472Z,6.38
2018-10-06T05:53:10.626Z,6.50
2018-10-06T05:54:10.762Z,6.48
2018-10-06T05:55:10.935Z,6.47
2018-10-06T05:56:11.079Z,6.54
2018-10-06T05:57:11.230Z,6.51
2018-10-06T05:58:11.375Z,6.58
2018-10-06T05:59:11.593Z,6.51
2018-10-06T06:00:11.670Z,6.63
2018-10-06T06:01:11.819Z,6.58
2018-10-06T06:02:11.967Z,6.62
2018-10-06T06:03:12.113Z,6.68
2018-10-06T06:04:12.261Z,6.69
2018-10-06T06:05:12.408Z,6.71
2018-10-06T06:06:12.556Z,6.77
2018-10-06T06:07:12.704Z,6.77
2018-10-06T06:08:12.851Z,6.76
2018-10-06T06:09:13.001Z,6.87
2018-10-06T06:10:13.145Z,6.83
2018-10-06T06:11:13.291Z,6.91
2018-10-06T06:12:13.438Z,6.97
2018-10-06T06:13:13.588Z,6.98
2018-10-06T06:14:13.732Z,6.81
2018-10-06T06:15:13.884Z,6.98
2018-10-06T06:16:14.032Z,6.83
2018-10-06T06:17:14.175Z,6.91
2018-10-06T06:18:14.325Z,6.97
2018-10-06T06:19:14.474Z,7.07
2018-10-06T06:20:14.621Z,6.97
2018-10-06T06:21:14.767Z,7.04
2018-10-06T06:22:14.914Z,7.07
2018-10-06T06:23:15.061Z,7.15
2018-10-06T06:24:15.210Z,7.17
2018-10-06T06:25:15.347Z,7.20
2018-10-06T06:26:15.507Z,7.20
2018-10-06T06:27:15.653Z,7.19
2018-10-06T06:28:15.802Z,7.23
2018-10-06T06:29:15.950Z,7.24
2018-10-06T06:30:16.097Z,7.29
2018-10-06T06:31:16.313Z,7.29
2018-10-06T06:32:16.463Z,7.31
2018-10-06T06:33:16.544Z,7.29
2018-10-06T06:34:16.691Z,7.41
2018-10-06T06:35:16.839Z,7.47
2018-10-06T06:36:16.990Z,7.49
2018-10-06T06:37:17.138Z,7.38
2018-10-06T06:38:17.335Z,7.50
2018-10-06T06:39:17.433Z,7.45
2018-10-06T06:40:17.585Z,7.49
2018-10-06T06:41:17.731Z,7.50
2018-10-06T06:42:17.880Z,7.56
2018-10-06T06:43:18.029Z,7.45
2018-10-06T06:44:18.237Z,7.50
2018-10-06T06:45:18.324Z,7.53
2018-10-06T06:46:18.477Z,7.49
2018-10-06T06:47:18.623Z,7.56
2018-10-06T06:48:18.776Z,7.56
2018-10-06T06:49:18.921Z,7.66
2018-10-06T06:50:19.067Z,7.56
2018-10-06T06:51:19.217Z,7.56
2018-10-06T06:52:19.364Z,7.55
2018-10-06T06:53:19.515Z,7.63
2018-10-06T06:54:19.662Z,7.60
2018-10-06T06:55:19.811Z,7.78
2018-10-06T06:56:19.961Z,7.78
2018-10-06T06:57:20.109Z,7.77
2018-10-06T06:58:20.257Z,7.81
2018-10-06T06:59:20.408Z,7.93
2018-10-06T07:00:20.557Z,8.03
2018-10-06T07:01:20.706Z,8.18
2018-10-06T07:02:20.857Z,8.15
2018-10-06T07:03:21.004Z,8.20
2018-10-06T07:04:21.152Z,8.14
2018-10-06T07:05:21.300Z,8.26
2018-10-06T07:06:21.452Z,8.37
2018-10-06T07:07:21.597Z,8.35
2018-10-06T07:08:21.742Z,8.37
2018-10-06T07:09:21.891Z,8.40
2018-10-06T07:10:22.037Z,8.58
2018-10-06T07:11:22.185Z,8.54
2018-10-06T07:12:22.336Z,8.62
2018-10-06T07:13:22.486Z,8.60
2018-10-06T07:14:22.636Z,8.66
2018-10-06T07:15:22.782Z,8.65
2018-10-06T07:16:22.934Z,8.79
2018-10-06T07:17:23.079Z,8.78
2018-10-06T07:18:23.263Z,8.81
2018-10-06T07:19:23.377Z,8.81
2018-10-06T07:20:23.528Z,8.78
2018-10-06T07:21:23.676Z,8.84
2018-10-06T07:22:23.823Z,8.83
2018-10-06T07:23:23.973Z,8.83
2018-10-06T07:24:24.123Z,8.96
2018-10-06T07:25:24.274Z,9.05
2018-10-06T07:26:24.420Z,8.97
2018-10-06T07:27:24.575Z,9.16
2018-10-06T07:28:24.722Z,9.23
2018-10-06T07:29:24.868Z,9.24
2018-10-06T07:30:25.019Z,9.34
2018-10-06T07:31:25.164Z,9.39
2018-10-06T07:32:25.317Z,9.45
2018-10-06T07:33:25.467Z,9.43
2018-10-06T07:34:25.617Z,9.50
2018-10-06T07:35:25.765Z,9.52
2018-10-06T07:36:25.914Z,9.46
2018-10-06T07:37:26.066Z,9.58
2018-10-06T07:38:26.215Z,9.67
2018-10-06T07:39:26.364Z,9.64
2018-10-06T07:40:26.516Z,9.67
2018-10-06T07:41:26.666Z,9.68
2018-10-06T07:42:26.813Z,9.73
2018-10-06T07:43:26.965Z,9.76
2018-10-06T07:44:27.111Z,9.76
2018-10-06T07:45:27.262Z,9.76
2018-10-06T07:46:27.411Z,9.85
2018-10-06T07:47:27.565Z,9.86
2018-10-06T07:48:27.708Z,9.94
2018-10-06T07:49:27.857Z,10.01
2018-10-06T07:50:28.009Z,9.91
2018-10-06T07:51:28.154Z,10.04
2018-10-06T07:52:28.305Z,10.04
2018-10-06T07:53:28.451Z,10.10
2018-10-06T07:54:28.603Z,10.19
2018-10-06T07:55:28.754Z,10.44
2018-10-06T07:56:28.903Z,10.59
2018-10-06T07:57:29.053Z,10.42
2018-10-06T07:58:29.203Z,10.30
2018-10-06T07:59:29.433Z,10.42
2018-10-06T08:00:29.549Z,10.47
2018-10-06T08:01:29.653Z,10.51
2018-10-06T08:02:29.838Z,10.52
2018-10-06T08:03:29.956Z,10.56
2018-10-06T08:04:30.104Z,10.71
2018-10-06T08:05:30.255Z,10.65
2018-10-06T08:06:30.477Z,10.83
2018-10-06T08:07:30.555Z,10.86
2018-10-06T08:08:30.711Z,10.99
2018-10-06T08:09:30.854Z,10.84
2018-10-06T08:10:31.001Z,10.88
2018-10-06T08:11:31.152Z,10.84
2018-10-06T08:12:31.303Z,10.99
2018-10-06T08:13:31.453Z,11.11
2018-10-06T08:14:31.601Z,11.13
2018-10-06T08:15:31.753Z,11.38
2018-10-06T08:16:31.902Z,11.41
2018-10-06T08:17:32.054Z,11.49
2018-10-06T08:18:32.205Z,11.50
2018-10-06T08:19:32.409Z,11.53
2018-10-06T08:20:32.511Z,11.47
2018-10-06T08:21:32.656Z,11.67
2018-10-06T08:22:32.809Z,11.67
2018-10-06T08:23:32.960Z,11.67
2018-10-06T08:24:33.107Z,11.75
2018-10-06T08:25:33.259Z,11.80
2018-10-06T08:26:33.409Z,11.94
2018-10-06T08:27:33.565Z,12.05
2018-10-06T08:28:33.711Z,12.05
2018-10-06T08:29:33.861Z,12.09
2018-10-06T08:30:34.013Z,12.30
2018-10-06T08:31:34.165Z,12.29
2018-10-06T08:32:34.315Z,12.44
2018-10-06T08:33:34.468Z,12.30
2018-10-06T08:34:34.615Z,12.42
2018-10-06T08:35:34.764Z,12.66
2018-10-06T08:36:34.917Z,12.59
2018-10-06T08:37:35.068Z,12.64
2018-10-06T08:38:35.219Z,12.75
2018-10-06T08:39:35.370Z,12.93
2018-10-06T08:40:35.520Z,12.92
2018-10-06T08:41:35.671Z,12.99
2018-10-06T08:42:35.838Z,12.97
2018-10-06T08:43:35.974Z,12.97
2018-10-06T08:44:36.127Z,13.12
2018-10-06T08:45:36.277Z,12.93
2018-10-06T08:46:36.424Z,13.04
2018-10-06T08:47:36.576Z,13.15
2018-10-06T08:48:36.726Z,13.21
2018-10-06T08:49:36.882Z,13.47
2018-10-06T08:50:37.031Z,13.37
2018-10-06T08:51:37.183Z,13.51
2018-10-06T08:52:37.335Z,13.46
2018-10-06T08:53:37.488Z,13.62
2018-10-06T08:54:37.639Z,13.70
2018-10-06T08:55:37.795Z,13.62
2018-10-06T08:56:37.939Z,13.79
2018-10-06T08:57:38.094Z,13.76
2018-10-06T08:58:38.243Z,13.92
2018-10-06T08:59:38.393Z,14.06
2018-10-06T09:00:38.544Z,14.02
2018-10-06T09:01:38.695Z,14.16
2018-10-06T09:02:38.852Z,14.20
2018-10-06T09:03:39.002Z,14.39
2018-10-06T09:04:39.224Z,14.52
2018-10-06T09:05:39.308Z,14.50
2018-10-06T09:06:39.459Z,14.61
2018-10-06T09:07:39.609Z,14.74
2018-10-06T09:08:39.762Z,14.86
2018-10-06T09:09:39.913Z,14.75
2018-10-06T09:10:40.066Z,14.88
2018-10-06T09:11:40.221Z,15.03
2018-10-06T09:12:40.372Z,15.11
2018-10-06T09:13:40.524Z,15.13
2018-10-06T09:14:40.677Z,15.15
2018-10-06T09:15:40.834Z,15.24
2018-10-06T09:16:40.986Z,15.35
2018-10-06T09:17:41.169Z,15.38
2018-10-06T09:18:41.287Z,15.45
2018-10-06T09:19:41.439Z,15.51
2018-10-06T09:20:41.591Z,15.60
2018-10-06T09:21:41.744Z,15.66
2018-10-06T09:22:41.897Z,15.76
2018-10-06T09:23:42.050Z,15.74
2018-10-06T09:24:42.200Z,15.97
2018-10-06T09:25:42.355Z,16.01
2018-10-06T09:26:42.507Z,15.96
2018-10-06T09:27:42.658Z,15.96
2018-10-06T09:28:42.812Z,16.07
2018-10-06T09:29:42.964Z,16.20
2018-10-06T09:30:43.118Z,16.23
2018-10-06T09:31:43.269Z,16.45
2018-10-06T09:32:43.423Z,16.44
2018-10-06T09:33:43.575Z,16.73
2018-10-06T09:34:43.730Z,16.75
2018-10-06T09:35:43.882Z,16.77
2018-10-06T09:36:44.034Z,16.78
2018-10-06T09:37:44.191Z,16.86
2018-10-06T09:38:44.343Z,16.86
2018-10-06T09:39:44.496Z,16.95
2018-10-06T09:40:44.648Z,16.98
2018-10-06T09:41:44.809Z,16.96
2018-10-06T09:42:45.127Z,17.00
2018-10-06T09:43:45.117Z,17.06
2018-10-06T09:44:45.266Z,17.07
2018-10-06T09:45:45.423Z,17.06
2018-10-06T09:46:45.577Z,17.18
2018-10-06T09:47:45.730Z,17.29
2018-10-06T09:48:45.888Z,17.35
2018-10-06T09:49:46.043Z,17.47
2018-10-06T09:50:46.194Z,17.50
2018-10-06T09:51:46.350Z,17.57
2018-10-06T09:52:46.507Z,17.44
2018-10-06T09:53:46.744Z,17.55
2018-10-06T09:54:46.815Z,17.73
2018-10-06T09:55:46.969Z,17.92
2018-10-06T09:56:47.127Z,18.10
2018-10-06T09:57:47.278Z,18.12
2018-10-06T09:58:47.434Z,18.33
2018-10-06T09:59:47.589Z,18.43
2018-10-06T10:00:47.744Z,18.54
2018-10-06T10:01:47.901Z,18.65
2018-10-06T10:02:48.056Z,18.82
2018-10-06T10:03:48.211Z,18.82
2018-10-06T10:04:48.363Z,18.95
2018-10-06T10:05:48.561Z,19.05
2018-10-06T10:06:48.673Z,19.25
2018-10-06T10:07:48.829Z,19.38
2018-10-06T10:08:48.983Z,19.28
2018-10-06T10:09:49.184Z,19.17
2018-10-06T10:10:49.294Z,19.29
2018-10-06T10:11:49.451Z,19.25
2018-10-06T10:12:49.605Z,19.28
2018-10-06T10:13:49.753Z,19.35
2018-10-06T10:14:49.910Z,19.33
2018-10-06T10:15:50.063Z,19.43
2018-10-06T10:16:50.233Z,19.40
2018-10-06T10:17:50.564Z,19.50
2018-10-06T10:18:50.535Z,19.55
2018-10-06T10:19:50.690Z,19.63
2018-10-06T10:20:50.846Z,19.61
2018-10-06T10:21:51.097Z,19.73
2018-10-06T10:22:51.182Z,19.79
2018-10-06T10:23:51.387Z,19.79
2018-10-06T10:24:51.462Z,19.87
2018-10-06T10:25:51.621Z,20.00
2018-10-06T10:26:51.774Z,19.97
2018-10-06T10:27:51.929Z,20.18
2018-10-06T10:28:52.127Z,20.31
2018-10-06T10:29:52.242Z,20.61
2018-10-06T10:30:52.398Z,20.76
2018-10-06T10:31:52.555Z,21.02
2018-10-06T10:32:52.711Z,21.32
2018-10-06T10:33:52.866Z,21.50
2018-10-06T10:34:53.022Z,21.57
2018-10-06T10:35:53.176Z,21.67
2018-10-06T10:36:53.333Z,21.79
2018-10-06T10:37:53.490Z,22.01
2018-10-06T10:38:53.646Z,22.07
2018-10-06T10:39:53.803Z,22.07
2018-10-06T10:40:53.959Z,22.27
2018-10-06T10:41:54.119Z,22.28
2018-10-06T10:42:54.273Z,22.28
2018-10-06T10:43:54.491Z,22.32
2018-10-06T10:44:54.581Z,22.46
2018-10-06T10:45:54.736Z,22.53
2018-10-06T10:46:54.894Z,22.56
2018-10-06T10:47:55.053Z,22.56
2018-10-06T10:48:55.209Z,22.68
2018-10-06T10:49:55.364Z,22.78
2018-10-06T10:50:55.524Z,22.80
2018-10-06T10:51:55.680Z,22.84
2018-10-06T10:52:55.853Z,22.90
2018-10-06T10:53:55.988Z,22.94
2018-10-06T10:54:56.145Z,23.11
2018-10-06T10:55:56.306Z,23.07
2018-10-06T10:56:56.461Z,23.15
2018-10-06T10:57:56.618Z,23.24
2018-10-06T10:58:56.773Z,23.27
2018-10-06T10:59:57.154Z,23.38
2018-10-06T11:00:57.134Z,23.42
2018-10-06T11:01:57.246Z,23.50
2018-10-06T11:02:57.402Z,23.45
2018-10-06T11:03:57.597Z,23.42
2018-10-06T11:04:57.717Z,23.47
2018-10-06T11:05:57.874Z,23.45
2018-10-06T11:06:58.031Z,23.53
2018-10-06T11:07:58.190Z,23.55
2018-10-06T11:08:58.345Z,23.72
2018-10-06T11:09:58.504Z,23.72
2018-10-06T11:10:58.661Z,23.71
2018-10-06T11:11:58.819Z,23.67
2018-10-06T11:12:58.974Z,23.64
2018-10-06T11:13:59.132Z,23.67
2018-10-06T11:14:59.289Z,23.87
2018-10-06T11:15:59.449Z,23.86
2018-10-06T11:16:59.608Z,23.83
2018-10-06T11:17:59.766Z,23.75
2018-10-06T11:18:59.923Z,23.85
2018-10-06T11:20:00.086Z,23.79
2018-10-06T11:21:00.237Z,23.85
2018-10-06T11:22:00.393Z,23.89
2018-10-06T11:23:00.551Z,23.90
2018-10-06T11:24:00.710Z,23.89
2018-10-06T11:25:00.938Z,23.87
2018-10-06T11:26:01.022Z,24.07
2018-10-06T11:27:01.183Z,24.02
2018-10-06T11:28:01.342Z,24.19
2018-10-06T11:29:01.500Z,24.17
2018-10-06T11:30:01.662Z,24.13
2018-10-06T11:31:01.816Z,24.26
2018-10-06T11:32:01.976Z,24.10
2018-10-06T11:33:02.132Z,24.24
2018-10-06T11:34:02.292Z,24.26
2018-10-06T11:35:02.449Z,24.50
2018-10-06T11:36:02.608Z,24.63
2018-10-06T11:37:02.763Z,24.61
2018-10-06T11:38:02.967Z,24.61
2018-10-06T11:39:03.080Z,24.54
2018-10-06T11:40:03.245Z,24.61
2018-10-06T11:41:03.397Z,24.92
2018-10-06T11:42:03.555Z,25.00
2018-10-06T11:43:03.709Z,25.09
2018-10-06T11:44:03.872Z,25.17
2018-10-06T11:45:04.030Z,25.35
2018-10-06T11:46:04.188Z,25.30
2018-10-06T11:47:04.351Z,25.37
2018-10-06T11:48:04.505Z,25.35
2018-10-06T11:49:04.664Z,25.38
2018-10-06T11:50:04.830Z,25.28
2018-10-06T11:51:04.981Z,25.38
2018-10-06T11:52:05.141Z,25.42
2018-10-06T11:53:05.305Z,25.06
2018-10-06T11:54:05.462Z,24.98
2018-10-06T11:55:05.623Z,24.94
2018-10-06T11:56:05.779Z,25.00
2018-10-06T11:57:05.941Z,25.02
2018-10-06T11:58:06.097Z,25.31
2018-10-06T11:59:06.256Z,25.42
2018-10-06T12:00:06.496Z,25.49
2018-10-06T12:01:06.571Z,25.43
2018-10-06T12:02:06.736Z,25.39
2018-10-06T12:03:06.891Z,25.61
2018-10-06T12:04:07.049Z,25.59
2018-10-06T12:05:07.208Z,25.57
2018-10-06T12:06:07.366Z,25.69
2018-10-06T12:07:07.526Z,25.82
2018-10-06T12:08:07.689Z,25.87
2018-10-06T12:09:07.847Z,26.08
2018-10-06T12:10:08.002Z,25.98
2018-10-06T12:11:08.162Z,25.82
2018-10-06T12:12:08.325Z,26.01
2018-10-06T12:13:08.482Z,26.22
2018-10-06T12:14:08.642Z,26.22
2018-10-06T12:15:08.803Z,26.20
2018-10-06T12:16:08.961Z,26.32
2018-10-06T12:17:09.120Z,26.29
2018-10-06T12:18:09.283Z,26.22
2018-10-06T12:19:09.453Z,26.25
2018-10-06T12:20:09.610Z,26.22
2018-10-06T12:21:09.767Z,26.17
2018-10-06T12:22:09.928Z,26.22
2018-10-06T12:23:10.086Z,26.17
2018-10-06T12:24:10.247Z,25.99
2018-10-06T12:25:10.406Z,25.99
2018-10-06T12:26:10.582Z,25.89
2018-10-06T12:27:10.727Z,25.62
2018-10-06T12:28:10.884Z,25.43
2018-10-06T12:29:11.043Z,25.37
2018-10-06T12:30:11.232Z,25.47
2018-10-06T12:31:11.390Z,25.46
2018-10-06T12:32:11.546Z,25.42
2018-10-06T12:33:11.706Z,25.35
2018-10-06T12:34:11.866Z,25.50
2018-10-06T12:35:12.153Z,25.53
2018-10-06T12:36:12.183Z,25.59
2018-10-06T12:37:12.342Z,25.68
2018-10-06T12:38:12.501Z,25.59
2018-10-06T12:39:12.659Z,25.68
2018-10-06T12:40:12.817Z,25.72
2018-10-06T12:41:12.974Z,25.71
2018-10-06T12:42:13.182Z,25.68
2018-10-06T12:43:13.293Z,25.77
2018-10-06T12:44:13.451Z,25.69
2018-10-06T12:45:13.610Z,25.75
2018-10-06T12:46:13.769Z,25.89
2018-10-06T12:47:13.930Z,25.94
2018-10-06T12:48:14.089Z,26.05
2018-10-06T12:49:14.251Z,25.84
2018-10-06T12:50:14.408Z,25.84
2018-10-06T12:51:14.574Z,25.52
2018-10-06T12:52:14.728Z,25.47
2018-10-06T12:53:14.884Z,25.34
2018-10-06T12:54:15.044Z,25.44
2018-10-06T12:55:15.204Z,25.38
2018-10-06T12:56:15.364Z,25.30
2018-10-06T12:57:15.522Z,25.43
2018-10-06T12:58:15.679Z,25.32
2018-10-06T12:59:15.842Z,25.30
2018-10-06T13:00:15.999Z,25.13
2018-10-06T13:01:16.157Z,25.06
2018-10-06T13:02:16.316Z,25.02
2018-10-06T13:03:16.475Z,25.01
2018-10-06T13:04:16.636Z,25.22
2018-10-06T13:05:16.792Z,25.30
2018-10-06T13:06:17.002Z,25.42
2018-10-06T13:07:17.114Z,25.61
2018-10-06T13:08:17.267Z,25.82
2018-10-06T13:09:17.427Z,25.82